Data for 05/28/2017

Time Sea-Level Adjusted Pressure Absolute Pressure Temperature Relative Humidity Dew Point   
(mb) (inHg) (mb) (inHg) (C) (F) (%) (C) (F)
00:05 1024 30.24 853 25.19 10.6 51.1 49 0.4 32.8
00:10 1024 30.24 853 25.19 10.5 51 49 0.3 32.5
00:15 1024 30.24 853 25.19 10.6 51 49 0.3 32.5
00:20 1024 30.24 853 25.19 10.5 51 48 0.2 32.3
00:25 1024 30.24 853 25.19 10.5 50.8 49 0.1 32.2
00:30 1024 30.24 853 25.19 10.4 50.7 49 0.3 32.5
00:35 1024 30.24 853 25.19 10.3 50.5 50 0.2 32.4
00:40 1024 30.24 853 25.19 10.2 50.3 50 0.3 32.5
00:45 1024 30.24 853 25.19 10.1 50.2 49 -0 32
00:50 1024 30.24 853 25.19 10.2 50.4 50 0.2 32.3
00:55 1024 30.24 854 25.22 10.1 50.2 50 0.2 32.4
01:00 1024 30.24 854 25.22 9.9 49.8 51 0.2 32.3
01:05 1024 30.24 854 25.22 9.8 49.7 51 0.2 32.4
01:10 1024 30.24 854 25.22 9.8 49.6 51 0.1 32.2
01:15 1024 30.24 854 25.22 9.8 49.7 50 -0 32
01:20 1025 30.27 854 25.22 9.9 49.8 50 0 32.1
01:25 1025 30.27 854 25.22 9.6 49.3 52 0.2 32.4
01:30 1025 30.27 854 25.22 9.6 49.2 51 -0 31.9
01:35 1025 30.27 854 25.22 9.8 49.7 49 -0.3 31.5
01:40 1025 30.27 854 25.22 10 50.1 49 -0.1 31.9
01:45 1025 30.27 854 25.22 10 50.1 49 -0.1 31.8
01:50 1025 30.27 854 25.22 10 50 49 -0.3 31.5
01:55 1025 30.27 854 25.22 10 50 49 -0.1 31.8
02:00 1025 30.27 854 25.22 9.8 49.7 51 0.1 32.2
02:05 1025 30.27 854 25.22 9.5 49.2 52 0.1 32.2
02:10 1025 30.27 854 25.22 9.2 48.6 53 0.3 32.5
02:15 1025 30.27 854 25.22 9 48.2 54 0.3 32.5
02:20 1025 30.27 854 25.22 8.8 47.8 55 0.2 32.4
02:25 1025 30.27 854 25.22 8.7 47.7 54 0 32
02:30 1025 30.27 854 25.22 8.6 47.5 56 0.3 32.5
02:35 1025 30.27 854 25.22 8.3 46.9 56 0.1 32.2
02:40 1025 30.27 854 25.22 8.4 47.1 56 0.1 32.3
02:45 1025 30.27 854 25.22 8.4 47.1 56 0 32.1
02:50 1025 30.27 854 25.22 8.5 47.4 55 0 32
02:55 1025 30.27 854 25.22 8.6 47.4 54 -0.2 31.7
03:00 1025 30.27 854 25.22 8.7 47.7 53 -0.2 31.7
03:05 1025 30.27 854 25.22 8.8 47.8 54 -0 32
03:10 1025 30.27 854 25.22 8.6 47.5 55 0 32.1
03:15 1025 30.27 854 25.22 8.5 47.3 55 -0.1 31.8
03:20 1025 30.27 854 25.22 8.6 47.4 54 -0.1 31.7
03:25 1025 30.27 854 25.22 8.5 47.3 55 -0.1 31.9
03:30 1025 30.27 854 25.22 8.3 47 55 -0.1 31.8
03:35 1025 30.27 854 25.22 8.3 46.9 56 0 32
03:40 1025 30.27 854 25.22 8.1 46.6 56 -0 31.9
03:45 1025 30.27 854 25.22 8.3 46.9 55 -0.3 31.5
03:50 1025 30.27 854 25.22 8.5 47.2 55 -0.1 31.8
03:55 1025 30.27 854 25.22 8.3 47 56 0.1 32.1
04:00 1025 30.27 854 25.22 8.1 46.6 56 -0.1 31.7
04:05 1025 30.27 854 25.22 8.2 46.7 56 -0.1 31.8
04:10 1025 30.27 854 25.22 8.1 46.6 54 -0.5 31
04:15 1025 30.27 854 25.22 8.8 47.8 52 -0.4 31.2
04:20 1025 30.27 854 25.22 8.9 48.1 53 -0.1 31.9
04:25 1025 30.27 854 25.22 8.2 46.8 57 0.2 32.4
04:30 1025 30.27 854 25.22 7.7 45.9 58 -0.1 31.8
04:35 1025 30.27 854 25.22 7.7 45.8 58 0 32
04:40 1025 30.27 854 25.22 7.5 45.6 59 0.2 32.3
04:45 1025 30.27 854 25.22 7.2 45 61 0.2 32.4
04:50 1025 30.27 854 25.22 6.9 44.5 62 0.1 32.2
04:55 1025 30.27 854 25.22 6.8 44.3 61 -0.1 31.8
05:00 1025 30.27 854 25.22 6.9 44.4 61 -0 32
05:05 1025 30.27 854 25.22 6.9 44.5 61 -0.1 31.8
05:10 1025 30.27 854 25.22 7.1 44.9 60 -0.1 31.8
05:15 1025 30.27 854 25.22 7.1 44.8 61 0.1 32.1
05:20 1025 30.27 854 25.22 7 44.7 61 -0 31.9
05:25 1025 30.27 854 25.22 7.3 45.1 60 -0 31.9
05:30 1025 30.27 854 25.22 7.3 45.2 60 0 32.1
05:35 1025 30.27 854 25.22 7.3 45.1 60 0 32.1
05:40 1025 30.27 854 25.22 7.2 44.9 60 0 32
05:45 1025 30.27 854 25.22 7.2 44.9 60 -0 32
05:50 1025 30.27 854 25.22 7.3 45.1 59 -0.1 31.9
05:55 1025 30.27 854 25.22 7.3 45.2 60 0.2 32.3
06:00 1025 30.27 854 25.22 7.1 44.7 61 -0 32
06:05 1025 30.27 854 25.22 7.3 45.1 59 -0.2 31.7
06:10 1025 30.27 854 25.22 7.7 45.8 58 -0.1 31.8
06:15 1025 30.27 854 25.22 7.9 46.2 56 -0.2 31.6
06:20 1025 30.27 854 25.22 8.3 46.9 56 -0 32
06:25 1025 30.27 854 25.22 8.3 47 56 0 32
06:30 1025 30.27 854 25.22 8.2 46.7 57 0.1 32.3
06:35 1025 30.27 855 25.25 8.2 46.8 56 0 32
06:40 1025 30.27 855 25.25 8.4 47.1 56 0.2 32.4
06:45 1025 30.27 855 25.25 8.4 47 56 0.2 32.3
06:50 1025 30.27 855 25.25 8.4 47.1 56 0.2 32.4
06:55 1025 30.27 855 25.25 8.6 47.4 56 0.4 32.6
07:00 1026 30.3 855 25.25 8.7 47.6 56 0.3 32.5
07:05 1026 30.3 855 25.25 8.8 47.8 57 0.6 33.2
07:10 1026 30.3 855 25.25 8.8 47.8 57 0.7 33.2
07:15 1026 30.3 855 25.25 9.1 48.3 55 0.6 33.1
07:20 1026 30.3 855 25.25 9.5 49 54 0.6 33.1
07:25 1026 30.3 855 25.25 9.9 49.7 53 0.9 33.6
07:30 1026 30.3 855 25.25 10.3 50.6 52 1 33.9
07:35 1026 30.3 855 25.25 10.6 51.1 52 1.1 34.1
07:40 1026 30.3 855 25.25 11.1 51.9 51 1.3 34.3
07:45 1026 30.3 855 25.25 11.5 52.7 50 1.4 34.6
07:50 1026 30.3 855 25.25 11.7 53.1 49 1.5 34.8
07:55 1026 30.3 855 25.25 12.6 54.6 45 1.1 34
08:00 1026 30.3 855 25.25 13.5 56.4 44 1.6 34.9
08:05 1026 30.3 855 25.25 13.7 56.7 43 1.3 34.4
08:10 1026 30.3 855 25.25 14.2 57.6 41 1.1 34
08:15 1026 30.3 855 25.25 14.7 58.4 39 1 33.8
08:20 1026 30.3 855 25.25 14.9 58.7 38 0.7 33.3
08:25 1026 30.3 855 25.25 14.9 58.7 36 0.2 32.3
08:30 1026 30.3 855 25.25 14.7 58.5 37 0.3 32.5
08:35 1026 30.3 855 25.25 14.6 58.2 37 -0 32
08:40 1026 30.3 855 25.25 15.1 59.1 36 0.4 32.7
08:45 1026 30.3 855 25.25 15.3 59.6 37 0.9 33.7
08:50 1026 30.3 855 25.25 14.8 58.7 38 0.8 33.5
08:55 1026 30.3 855 25.25 14.9 58.8 36 0.2 32.3
09:00 1026 30.3 855 25.25 15.3 59.5 35 0.1 32.3
09:05 1026 30.3 855 25.25 15.6 60.1 34 -0.2 31.6
09:10 1026 30.3 855 25.25 16.1 60.9 33 -0.1 31.8
09:15 1026 30.3 855 25.25 16.3 61.4 33 0.3 32.6
09:20 1026 30.3 855 25.25 16.3 61.3 32 -0.2 31.7
09:25 1026 30.3 855 25.25 16.2 61.1 34 0.4 32.8
09:30 1026 30.3 855 25.25 16.3 61.3 32 -0.3 31.4
09:35 1026 30.3 855 25.25 17 62.7 31 -0.1 31.8
09:40 1026 30.3 855 25.25 17.3 63.2 32 0.5 32.9
09:45 1026 30.3 855 25.25 17.5 63.6 31 0.4 32.8
09:50 1026 30.3 855 25.25 17.8 64.1 29 -0.2 31.6
09:55 1026 30.3 855 25.25 18.1 64.5 30 0.2 32.3
10:00 1026 30.3 855 25.25 18.6 65.6 30 0.9 33.7
10:05 1026 30.3 855 25.25 18.9 66 30 0.9 33.6
10:10 1026 30.3 855 25.25 19.2 66.6 29 1 33.9
10:15 1026 30.3 855 25.25 19.3 66.7 28 0.5 32.8
10:20 1026 30.3 855 25.25 18.2 64.7 31 1 33.9
10:25 1026 30.3 855 25.25 18.1 64.6 32 1.2 34.1
10:30 1026 30.3 855 25.25 18.3 64.9 31 1.1 34
10:35 1026 30.3 855 25.25 18.7 65.7 31 1.5 34.7
10:40 1026 30.3 855 25.25 18.7 65.6 30 0.9 33.6
10:45 1026 30.3 855 25.25 18.3 65 31 1.2 34.2
10:50 1026 30.3 855 25.25 18.6 65.4 31 1.4 34.5
10:55 1026 30.3 855 25.25 18.5 65.3 32 1.8 35.3
11:00 1026 30.3 855 25.25 19 66.1 30 1.3 34.3
11:05 1026 30.3 855 25.25 19.6 67.2 29 1.1 34.1
11:10 1026 30.3 855 25.25 19.8 67.6 28 1 33.8
11:15 1026 30.3 855 25.25 19.3 66.7 28 0.6 33.1
11:20 1026 30.3 855 25.25 19.8 67.6 28 0.7 33.3
11:25 1026 30.3 855 25.25 20 67.9 27 0.5 33
11:30 1026 30.3 855 25.25 19.7 67.5 27 0.5 32.9
11:35 1026 30.3 855 25.25 20 67.9 25 -0.5 31
11:40 1026 30.3 855 25.25 20.4 68.8 26 0.5 32.9
11:45 1026 30.3 855 25.25 20.4 68.6 25 0.1 32.2
11:50 1026 30.3 855 25.25 20.3 68.5 27 1 33.8
11:55 1026 30.3 855 25.25 20.7 69.2 26 0.7 33.3
12:00 1026 30.3 855 25.25 20.6 69 26 0.5 32.9
12:05 1026 30.3 855 25.25 20.4 68.7 26 0.3 32.6
12:10 1026 30.3 855 25.25 20.6 69.1 25 0.1 32.1
12:15 1026 30.3 855 25.25 21.3 70.4 25 0.6 33
12:20 1026 30.3 855 25.25 20.2 68.4 26 0.1 32.1
12:25 1026 30.3 855 25.25 20.3 68.5 25 0 32.1
12:30 1025 30.27 855 25.25 19.8 67.6 25 -0.9 30.4
12:35 1025 30.27 855 25.25 20.3 68.5 26 0.4 32.8
12:40 1025 30.27 855 25.25 20.7 69.3 25 -0.1 31.9
12:45 1025 30.27 855 25.25 20.9 69.6 24 -0 32
12:50 1025 30.27 855 25.25 21.3 70.3 25 0.7 33.3
12:55 1025 30.27 855 25.25 21 69.9 27 1.3 34.4
13:00 1025 30.27 855 25.25 20.6 69.1 26 0.7 33.3
13:05 1025 30.27 855 25.25 20.8 69.4 26 0.7 33.2
13:10 1025 30.27 854 25.22 21.6 70.9 25 0.7 33.3
13:15 1025 30.27 854 25.22 22 71.6 24 0.5 32.9
13:20 1025 30.27 854 25.22 21.4 70.4 24 0 32
13:25 1025 30.27 854 25.22 22 71.7 20 -1.8 28.8
13:30 1025 30.27 854 25.22 21.5 70.8 21 -1.6 29.1
13:35 1025 30.27 854 25.22 21.4 70.6 23 -0.1 31.8
13:40 1025 30.27 854 25.22 21.9 71.4 24 0.4 32.7
13:45 1025 30.27 854 25.22 22.8 73 21 -0.7 30.7
13:50 1025 30.27 854 25.22 22.1 71.8 20 -1.6 29.1
13:55 1025 30.27 854 25.22 22.2 71.9 21 -1 30.2
14:00 1025 30.27 854 25.22 22.1 71.8 21 -1 30.2
14:05 1025 30.27 854 25.22 21.8 71.2 22 -0.6 30.9
14:10 1025 30.27 854 25.22 22.1 71.7 22 -0.7 30.8
14:15 1025 30.27 854 25.22 22.4 72.3 19 -2 28.5
14:20 1025 30.27 854 25.22 22.3 72.2 18 -2.7 27.1
14:25 1025 30.27 854 25.22 22.1 71.8 19 -2.1 28.3
14:30 1025 30.27 854 25.22 22.5 72.5 18 -2.6 27.3
14:35 1025 30.27 854 25.22 22.6 72.7 17 -3.7 25.4
14:40 1025 30.27 854 25.22 22.6 72.6 18 -2.4 27.6
14:45 1025 30.27 854 25.22 23.1 73.7 20 -1.1 30
14:50 1025 30.27 854 25.22 23 73.5 19 -1.3 29.7
14:55 1024 30.24 854 25.22 22.7 72.9 19 -2 28.4
15:00 1024 30.24 854 25.22 22.1 71.8 18 -3.5 25.7
15:05 1024 30.24 854 25.22 21.5 70.8 17 -4.5 24
15:10 1024 30.24 854 25.22 22.7 72.9 17 -3.3 26.1
15:15 1024 30.24 854 25.22 23.2 73.7 17 -3.2 26.2
15:20 1024 30.24 853 25.19 23.4 74.1 15 -4.3 24.3
15:25 1024 30.24 854 25.22 23.6 74.5 17 -2.8 27
15:30 1024 30.24 853 25.19 23.3 73.9 17 -2.7 27.2
15:35 1024 30.24 853 25.19 23.5 74.3 16 -3.8 25.1
15:40 1024 30.24 853 25.19 23.5 74.2 16 -3.7 25.3
15:45 1024 30.24 853 25.19 23.5 74.3 16 -4 24.8
15:50 1024 30.24 853 25.19 23 73.4 14 -5.4 22.4
15:55 1024 30.24 853 25.19 22.4 72.3 14 -6.2 20.8
16:00 1024 30.24 853 25.19 22.8 73.1 14 -5.6 22
16:05 1024 30.24 853 25.19 22.8 73 15 -5.2 22.7
16:10 1024 30.24 853 25.19 23.1 73.6 16 -3.5 25.7
16:15 1024 30.24 853 25.19 23.2 73.7 15 -4.6 23.8
16:20 1024 30.24 853 25.19 22.7 72.8 24 1.3 34.3
16:25 1024 30.24 853 25.19 20.5 68.9 25 0.2 32.3
16:30 1024 30.24 853 25.19 20.3 68.6 24 -0.7 30.7
16:35 1024 30.24 853 25.19 20.5 68.9 25 -0 31.9
16:40 1024 30.24 853 25.19 20.9 69.7 25 0.2 32.3
16:45 1024 30.24 853 25.19 21.4 70.5 25 0.8 33.5
16:50 1024 30.24 853 25.19 21 69.8 22 -1.2 29.9
16:55 1024 30.24 853 25.19 22 71.7 23 -0 32
17:00 1024 30.24 853 25.19 22.2 72 23 0.2 32.4
17:05 1024 30.24 853 25.19 21.8 71.2 24 0.5 32.9
17:10 1024 30.24 853 25.19 21.1 69.9 26 0.9 33.7
17:15 1024 30.24 853 25.19 20.7 69.2 28 1.9 35.3
17:20 1024 30.24 853 25.19 19.9 67.8 31 2.3 36.2
17:25 1024 30.24 853 25.19 18.9 65.9 32 1.9 35.4
17:30 1024 30.24 853 25.19 18.5 65.3 33 2.2 36
17:35 1024 30.24 853 25.19 17.9 64.3 37 3.2 37.8
17:40 1024 30.24 853 25.19 17.7 63.8 40 4 39.1
17:45 1024 30.24 853 25.19 17.2 62.9 50 6.7 44
17:50 1024 30.24 853 25.19 16.1 60.9 55 7.1 44.8
17:55 1024 30.24 853 25.19 15.3 59.5 55 6.4 43.5
18:00 1024 30.24 853 25.19 15.3 59.5 51 5.2 41.3
18:05 1024 30.24 853 25.19 15.5 59.9 52 5.7 42.3
18:10 1024 30.24 854 25.22 15.7 60.3 52 6 42.9
18:15 1025 30.27 854 25.22 15.9 60.6 50 5.5 41.9
18:20 1025 30.27 854 25.22 15.7 60.3 51 5.8 42.5
18:25 1024 30.24 854 25.22 15.7 60.2 52 5.9 42.6
18:30 1025 30.27 854 25.22 15.6 60.1 47 4.6 40.2
18:35 1025 30.27 854 25.22 15.6 60.1 53 6.1 43
18:40 1025 30.27 854 25.22 15.5 59.9 55 6.6 43.9
18:45 1025 30.27 854 25.22 15.4 59.7 53 6 42.9
18:50 1025 30.27 854 25.22 15.5 59.9 53 6.1 43
18:55 1025 30.27 854 25.22 15.8 60.5 53 6.5 43.6
19:00 1025 30.27 854 25.22 16.4 61.4 36 1.5 34.8
19:05 1025 30.27 854 25.22 17 62.5 38 2.7 36.8
19:10 1025 30.27 854 25.22 17 62.6 36 2.1 35.8
19:15 1025 30.27 854 25.22 16.9 62.4 39 3 37.5
19:20 1025 30.27 854 25.22 16.4 61.4 52 6.6 43.9
19:25 1025 30.27 854 25.22 15.5 59.9 54 6.4 43.6
19:30 1025 30.27 854 25.22 15.3 59.5 56 6.7 44.1
19:35 1025 30.27 854 25.22 15.1 59.2 58 7 44.6
19:40 1025 30.27 854 25.22 15 59 61 7.6 45.7
19:45 1025 30.27 854 25.22 14.9 58.8 60 7.3 45.2
19:50 1025 30.27 854 25.22 14.7 58.4 61 7.4 45.4
19:55 1025 30.27 854 25.22 14.7 58.4 59 6.8 44.2
20:00 1025 30.27 854 25.22 14.9 58.7 57 6.5 43.8
20:05 1025 30.27 854 25.22 15.2 59.3 56 6.5 43.7
20:10 1025 30.27 854 25.22 15.2 59.3 55 6.2 43.1
20:15 1025 30.27 854 25.22 15 58.9 58 6.8 44.2
20:20 1025 30.27 854 25.22 14.7 58.5 58 6.6 44
20:25 1025 30.27 854 25.22 14.7 58.4 56 6.1 42.9
20:30 1025 30.27 854 25.22 14.7 58.4 55 5.8 42.4
20:35 1025 30.27 854 25.22 14.7 58.4 55 5.7 42.2
20:40 1025 30.27 854 25.22 14.6 58.2 53 5.2 41.3
20:45 1025 30.27 854 25.22 14.6 58.3 53 5.1 41.1
20:50 1025 30.27 854 25.22 14.5 58 53 5 41
20:55 1025 30.27 854 25.22 14.3 57.7 52 4.5 40.1
21:00 1025 30.27 854 25.22 14.2 57.5 50 4.1 39.4
21:05 1025 30.27 854 25.22 14.1 57.3 50 4 39.1
21:10 1025 30.27 854 25.22 13.9 57 50 3.8 38.8
21:15 1025 30.27 854 25.22 13.8 56.9 51 3.8 38.9
21:20 1025 30.27 854 25.22 13.7 56.6 52 4 39.2
21:25 1025 30.27 854 25.22 13.4 56.2 52 3.9 39
21:30 1025 30.27 854 25.22 13.4 56.1 52 3.7 38.7
21:35 1025 30.27 854 25.22 13.5 56.3 51 3.6 38.4
21:40 1025 30.27 854 25.22 13.4 56.1 52 3.9 39
21:45 1025 30.27 854 25.22 13.2 55.8 53 4 39.2
21:50 1025 30.27 854 25.22 13 55.4 55 4.1 39.5
21:55 1025 30.27 854 25.22 12.8 55.1 55 4.1 39.4
22:00 1025 30.27 854 25.22 12.7 54.9 56 4.1 39.4
22:05 1025 30.27 854 25.22 12.7 54.8 56 4.1 39.4
22:10 1025 30.27 855 25.25 12.6 54.6 56 4 39.3
22:15 1025 30.27 855 25.25 12.6 54.8 55 3.9 39
22:20 1026 30.3 855 25.25 12.7 54.9 55 4 39.2
22:25 1026 30.3 855 25.25 12.7 54.8 56 4.2 39.6
22:30 1026 30.3 855 25.25 12.5 54.6 58 4.4 40
22:35 1026 30.3 855 25.25 12.4 54.3 58 4.5 40.1
22:40 1025 30.27 855 25.25 12.3 54.1 58 4.4 39.9
22:45 1025 30.27 855 25.25 12.2 54 58 4.3 39.8
22:50 1025 30.27 855 25.25 12.1 53.8 60 4.5 40.1
22:55 1025 30.27 855 25.25 12.1 53.8 58 4.2 39.6
23:00 1026 30.3 855 25.25 12.2 54 58 4.2 39.6
23:05 1025 30.27 855 25.25 12.2 53.9 57 4 39.3
23:10 1025 30.27 855 25.25 12.2 54 57 3.9 39.1
23:15 1025 30.27 855 25.25 12.2 54 56 3.8 38.8
23:20 1025 30.27 855 25.25 12.3 54.2 55 3.7 38.7
23:25 1026 30.3 855 25.25 12.4 54.2 55 3.6 38.5
23:30 1025 30.27 855 25.25 12.3 54.2 55 3.6 38.5
23:35 1025 30.27 855 25.25 12.3 54.2 55 3.6 38.5
23:40 1025 30.27 855 25.25 12.3 54.2 55 3.6 38.5
23:45 1025 30.27 855 25.25 12.3 54.1 55 3.6 38.5
23:50 1025 30.27 855 25.25 12.2 53.9 56 3.7 38.6
23:55 1025 30.27 855 25.25 12.1 53.8 56 3.7 38.7
24:00 1025 30.27 855 25.25 12.1 53.7 56 3.7 38.7